createdAt,value
2022-12-23T00:00:11.066Z,100.00
2022-12-23T00:02:38.513Z,100.00
2022-12-23T00:05:06.084Z,100.00
2022-12-23T00:07:32.857Z,100.00
2022-12-23T00:09:59.483Z,100.00
2022-12-23T00:12:44.834Z,100.00
2022-12-23T00:15:12.752Z,100.00
2022-12-23T00:17:44.377Z,100.00
2022-12-23T00:20:15.176Z,100.00
2022-12-23T00:23:00.726Z,100.00
2022-12-23T00:25:44.691Z,100.00
2022-12-23T00:28:13.121Z,100.00
2022-12-23T00:30:48.387Z,100.00
2022-12-23T00:33:16.705Z,100.00
2022-12-23T00:35:44.841Z,100.00
2022-12-23T00:38:12.339Z,100.00
2022-12-23T00:40:57.784Z,100.00
2022-12-23T00:43:24.579Z,100.00
2022-12-23T00:45:51.390Z,100.00
2022-12-23T00:48:36.775Z,100.00
2022-12-23T00:51:03.550Z,100.00
2022-12-23T00:53:30.219Z,100.00
2022-12-23T00:55:56.829Z,100.00
2022-12-23T00:58:23.459Z,100.00
2022-12-23T01:01:08.640Z,100.00
2022-12-23T01:03:53.957Z,100.00
2022-12-23T01:06:20.599Z,100.00
2022-12-23T01:08:47.170Z,100.00
2022-12-23T01:11:13.774Z,100.00
2022-12-23T01:13:40.419Z,100.00
2022-12-23T01:16:15.035Z,100.00
2022-12-23T01:18:44.144Z,100.00
2022-12-23T01:21:11.402Z,100.00
2022-12-23T01:23:38.783Z,100.00
2022-12-23T01:26:07.263Z,100.00
2022-12-23T01:28:35.421Z,100.00
2022-12-23T01:31:03.818Z,100.00
2022-12-23T01:33:32.081Z,100.00
2022-12-23T01:36:07.876Z,100.00
2022-12-23T01:38:35.045Z,100.00
2022-12-23T01:41:01.719Z,100.00
2022-12-23T01:43:52.003Z,100.00
2022-12-23T01:46:18.870Z,100.00
2022-12-23T01:48:51.056Z,100.00
2022-12-23T01:51:30.021Z,100.00
2022-12-23T01:54:01.072Z,100.00
2022-12-23T01:56:34.454Z,100.00
2022-12-23T01:59:05.691Z,100.00
2022-12-23T02:01:50.741Z,100.00
2022-12-23T02:04:20.293Z,100.00
2022-12-23T02:07:08.406Z,100.00
2022-12-23T02:09:38.334Z,100.00
2022-12-23T02:12:32.528Z,100.00
2022-12-23T02:15:25.048Z,100.00
2022-12-23T02:18:10.246Z,100.00
2022-12-23T02:20:51.734Z,100.00
2022-12-23T02:23:30.326Z,100.00
2022-12-23T02:26:09.087Z,100.00
2022-12-23T02:29:03.786Z,100.00
2022-12-23T02:31:49.823Z,100.00
2022-12-23T02:34:22.741Z,100.00
2022-12-23T02:36:55.266Z,100.00
2022-12-23T02:39:53.916Z,100.00
2022-12-23T02:43:05.259Z,100.00
2022-12-23T02:45:45.379Z,100.00
2022-12-23T02:48:21.173Z,100.00
2022-12-23T02:50:48.983Z,100.00
2022-12-23T02:53:22.297Z,100.00
2022-12-23T02:55:52.035Z,100.00
2022-12-23T02:58:23.119Z,100.00
2022-12-23T03:00:50.690Z,100.00
2022-12-23T03:03:17.740Z,100.00
2022-12-23T03:05:47.517Z,100.00
2022-12-23T03:08:22.156Z,100.00
2022-12-23T03:11:00.744Z,100.00
2022-12-23T03:13:45.722Z,100.00
2022-12-23T03:16:24.595Z,100.00
2022-12-23T03:19:07.389Z,100.00
2022-12-23T03:21:52.614Z,100.00
2022-12-23T03:24:55.744Z,100.00
2022-12-23T03:27:48.525Z,100.00
2022-12-23T03:30:18.667Z,100.00
2022-12-23T03:32:58.395Z,100.00
2022-12-23T03:35:36.268Z,100.00
2022-12-23T03:38:04.001Z,100.00
2022-12-23T03:40:39.068Z,100.00
2022-12-23T03:43:13.763Z,100.00
2022-12-23T03:45:48.739Z,100.00
2022-12-23T03:48:40.648Z,100.00
2022-12-23T03:51:25.764Z,100.00
2022-12-23T03:53:59.331Z,100.00
2022-12-23T03:56:35.503Z,100.00
2022-12-23T03:59:11.174Z,100.00
2022-12-23T04:01:53.186Z,100.00
2022-12-23T04:04:32.885Z,100.00
2022-12-23T04:07:05.405Z,100.00
2022-12-23T04:09:32.949Z,100.00
2022-12-23T04:11:59.613Z,100.00
2022-12-23T04:14:26.359Z,100.00
2022-12-23T04:16:58.400Z,100.00
2022-12-23T04:19:25.639Z,100.00
2022-12-23T04:21:55.874Z,100.00
2022-12-23T04:24:22.953Z,100.00
2022-12-23T04:26:49.654Z,100.00
2022-12-23T04:29:16.559Z,100.00
2022-12-23T04:31:43.197Z,100.00
2022-12-23T04:34:10.032Z,100.00
2022-12-23T04:36:36.822Z,100.00
2022-12-23T04:39:03.596Z,100.00
2022-12-23T04:41:30.355Z,100.00
2022-12-23T04:43:56.983Z,100.00
2022-12-23T04:46:23.608Z,100.00
2022-12-23T04:48:50.355Z,100.00
2022-12-23T04:51:17.226Z,100.00
2022-12-23T04:53:43.862Z,100.00
2022-12-23T04:56:10.877Z,100.00
2022-12-23T04:58:38.143Z,100.00
2022-12-23T05:01:07.663Z,100.00
2022-12-23T05:03:34.936Z,100.00
2022-12-23T05:06:02.406Z,100.00
2022-12-23T05:08:29.859Z,100.00
2022-12-23T05:10:56.937Z,100.00
2022-12-23T05:13:23.629Z,100.00
2022-12-23T05:15:51.616Z,100.00
2022-12-23T05:18:18.538Z,100.00
2022-12-23T05:20:45.409Z,100.00
2022-12-23T05:23:12.323Z,100.00
2022-12-23T05:25:40.089Z,100.00
2022-12-23T05:28:09.476Z,100.00
2022-12-23T05:30:36.621Z,100.00
2022-12-23T05:33:03.345Z,100.00
2022-12-23T05:35:30.141Z,100.00
2022-12-23T05:37:57.841Z,100.00
2022-12-23T05:40:28.756Z,100.00
2022-12-23T05:42:59.224Z,100.00
2022-12-23T05:45:25.952Z,100.00
2022-12-23T05:47:52.641Z,100.00
2022-12-23T05:50:19.274Z,100.00
2022-12-23T05:52:48.474Z,100.00
2022-12-23T05:55:15.205Z,100.00
2022-12-23T05:57:41.865Z,100.00
2022-12-23T06:00:09.613Z,100.00
2022-12-23T06:02:39.264Z,100.00
2022-12-23T06:05:06.995Z,100.00
2022-12-23T06:07:33.742Z,100.00
2022-12-23T06:10:00.404Z,100.00
2022-12-23T06:12:27.236Z,100.00
2022-12-23T06:14:54.041Z,100.00
2022-12-23T06:17:20.805Z,100.00
2022-12-23T06:19:47.890Z,100.00
2022-12-23T06:22:15.284Z,100.00
2022-12-23T06:24:42.017Z,100.00
2022-12-23T06:27:08.725Z,100.00
2022-12-23T06:29:35.397Z,100.00
2022-12-23T06:32:02.253Z,100.00
2022-12-23T06:34:28.948Z,100.00
2022-12-23T06:36:55.594Z,100.00
2022-12-23T06:39:22.423Z,100.00
2022-12-23T06:41:49.372Z,100.00
2022-12-23T06:44:16.023Z,100.00
2022-12-23T06:46:42.775Z,100.00
2022-12-23T06:49:13.387Z,100.00
2022-12-23T06:51:41.145Z,100.00
2022-12-23T06:54:11.106Z,100.00
2022-12-23T06:56:38.083Z,100.00
2022-12-23T06:59:04.773Z,100.00
2022-12-23T07:01:31.880Z,100.00
2022-12-23T07:03:58.748Z,100.00
2022-12-23T07:06:25.304Z,100.00
2022-12-23T07:08:52.214Z,100.00
2022-12-23T07:11:18.915Z,100.00
2022-12-23T07:13:46.350Z,100.00
2022-12-23T07:16:13.358Z,100.00
2022-12-23T07:18:40.130Z,100.00
2022-12-23T07:21:10.578Z,100.00
2022-12-23T07:23:44.596Z,100.00
2022-12-23T07:26:11.367Z,100.00
2022-12-23T07:28:38.320Z,100.00
2022-12-23T07:31:08.043Z,100.00
2022-12-23T07:33:35.153Z,100.00
2022-12-23T07:36:01.903Z,100.00
2022-12-23T07:38:29.765Z,100.00
2022-12-23T07:40:56.356Z,100.00
2022-12-23T07:43:23.055Z,100.00
2022-12-23T07:45:55.585Z,100.00
2022-12-23T07:48:26.169Z,100.00
2022-12-23T07:50:53.061Z,100.00
2022-12-23T07:53:19.635Z,100.00
2022-12-23T07:55:48.092Z,100.00
2022-12-23T07:58:18.227Z,100.00
2022-12-23T08:00:44.845Z,100.00
2022-12-23T08:03:12.324Z,100.00
2022-12-23T08:05:39.004Z,100.00
2022-12-23T08:08:05.591Z,100.00
2022-12-23T08:10:32.506Z,100.00
2022-12-23T08:13:02.519Z,100.00
2022-12-23T08:15:29.423Z,100.00
2022-12-23T08:17:56.595Z,100.00
2022-12-23T08:20:23.262Z,100.00
2022-12-23T08:22:49.903Z,100.00
2022-12-23T08:25:16.540Z,100.00
2022-12-23T08:27:43.280Z,100.00
2022-12-23T08:30:10.429Z,100.00
2022-12-23T08:32:37.109Z,100.00
2022-12-23T08:35:03.880Z,100.00
2022-12-23T08:37:30.457Z,100.00
2022-12-23T08:39:57.111Z,100.00
2022-12-23T08:42:23.696Z,100.00
2022-12-23T08:44:50.299Z,100.00
2022-12-23T08:47:16.927Z,100.00
2022-12-23T08:49:43.584Z,100.00
2022-12-23T08:52:10.231Z,100.00
2022-12-23T08:54:36.839Z,100.00
2022-12-23T08:57:03.564Z,100.00
2022-12-23T08:59:30.150Z,100.00
2022-12-23T09:01:59.649Z,100.00
2022-12-23T09:04:26.558Z,91.34
2022-12-23T09:06:53.439Z,84.96
2022-12-23T09:09:19.995Z,76.04
2022-12-23T09:11:46.745Z,75.55
2022-12-23T09:14:13.863Z,66.82
2022-12-23T09:16:40.549Z,59.00
2022-12-23T09:19:08.043Z,54.43
2022-12-23T09:21:35.024Z,52.56
2022-12-23T09:24:01.980Z,49.99
2022-12-23T09:26:30.703Z,48.17
2022-12-23T09:28:57.980Z,47.72
2022-12-23T09:31:27.869Z,45.25
2022-12-23T09:33:59.204Z,45.12
2022-12-23T09:36:25.837Z,44.95
2022-12-23T09:38:57.807Z,42.41
2022-12-23T09:41:42.927Z,40.81
2022-12-23T09:44:28.542Z,41.66
2022-12-23T09:47:01.189Z,40.84
2022-12-23T09:49:28.333Z,39.06
2022-12-23T09:52:00.227Z,38.59
2022-12-23T09:54:30.044Z,39.34
2022-12-23T09:57:11.866Z,38.23
2022-12-23T09:59:53.302Z,41.66
2022-12-23T10:02:42.323Z,41.72
2022-12-23T10:05:21.528Z,43.98
2022-12-23T10:08:03.168Z,45.50
2022-12-23T10:10:50.334Z,46.11
2022-12-23T10:13:26.662Z,49.03
2022-12-23T10:15:55.330Z,51.99
2022-12-23T10:18:42.184Z,54.58
2022-12-23T10:21:12.379Z,52.96
2022-12-23T10:23:44.208Z,52.38
2022-12-23T10:26:43.188Z,52.72
2022-12-23T10:29:18.317Z,53.33
2022-12-23T10:32:24.618Z,52.48
2022-12-23T10:34:51.148Z,56.22
2022-12-23T10:37:37.539Z,56.15
2022-12-23T10:40:16.157Z,55.03
2022-12-23T10:42:45.702Z,51.85
2022-12-23T10:45:41.285Z,46.62
2022-12-23T10:48:13.641Z,44.43
2022-12-23T10:51:11.591Z,41.10
2022-12-23T10:53:47.105Z,38.62
2022-12-23T10:56:15.083Z,38.17
2022-12-23T10:58:44.943Z,36.18
2022-12-23T11:01:23.838Z,37.62
2022-12-23T11:04:06.074Z,36.49
2022-12-23T11:06:37.638Z,37.18
2022-12-23T11:09:06.090Z,40.25
2022-12-23T11:12:02.328Z,44.22
2022-12-23T11:14:42.782Z,44.86
2022-12-23T11:17:30.307Z,43.54
2022-12-23T11:20:08.807Z,47.91
2022-12-23T11:22:35.519Z,50.46
2022-12-23T11:25:37.763Z,48.38
2022-12-23T11:28:10.058Z,51.89
2022-12-23T11:31:05.606Z,59.26
2022-12-23T11:34:11.762Z,66.57
2022-12-23T11:36:38.567Z,75.84
2022-12-23T11:39:24.459Z,84.28
2022-12-23T11:41:54.610Z,87.42
2022-12-23T11:44:33.260Z,90.45
2022-12-23T11:47:24.274Z,94.03
2022-12-23T11:49:55.334Z,91.28
2022-12-23T11:52:26.306Z,92.68
2022-12-23T11:54:58.309Z,79.55
2022-12-23T11:57:39.548Z,64.42
2022-12-23T12:00:16.653Z,52.94
2022-12-23T12:02:45.913Z,47.82
2022-12-23T12:05:22.709Z,46.89
2022-12-23T12:07:51.219Z,42.89
2022-12-23T12:10:29.572Z,40.48
2022-12-23T12:13:01.631Z,38.56
2022-12-23T12:15:50.764Z,37.11
2022-12-23T12:18:19.657Z,36.39
2022-12-23T12:20:51.684Z,36.41
2022-12-23T12:23:23.261Z,35.43
2022-12-23T12:25:59.828Z,34.71
2022-12-23T12:28:34.488Z,35.91
2022-12-23T12:31:20.418Z,33.29
2022-12-23T12:33:56.296Z,32.41
2022-12-23T12:36:55.903Z,32.51
2022-12-23T12:39:38.100Z,31.72
2022-12-23T12:42:29.171Z,31.65
2022-12-23T12:45:05.890Z,31.47
2022-12-23T12:48:01.385Z,33.90
2022-12-23T12:50:32.704Z,33.75
2022-12-23T12:53:09.096Z,32.73
2022-12-23T12:55:39.978Z,32.89
2022-12-23T12:58:19.998Z,31.40
2022-12-23T13:01:20.917Z,33.62
2022-12-23T13:04:18.737Z,35.40
2022-12-23T13:07:23.074Z,36.13
2022-12-23T13:09:58.834Z,37.75
2022-12-23T13:12:25.367Z,36.23
2022-12-23T13:15:11.775Z,36.22
2022-12-23T13:17:49.885Z,36.83
2022-12-23T13:20:36.234Z,39.09
2022-12-23T13:23:42.760Z,39.57
2022-12-23T13:26:37.316Z,40.25
2022-12-23T13:29:28.376Z,42.26
2022-12-23T13:32:22.522Z,43.10
2022-12-23T13:34:57.867Z,43.10
2022-12-23T13:37:50.068Z,42.92
2022-12-23T13:40:42.176Z,46.18
2022-12-23T13:43:18.814Z,49.20
2022-12-23T13:45:48.051Z,51.34
2022-12-23T13:48:45.014Z,52.43
2022-12-23T13:51:30.470Z,53.10
2022-12-23T13:54:25.001Z,56.08
2022-12-23T13:57:08.080Z,60.98
2022-12-23T13:59:43.625Z,64.52
2022-12-23T14:02:35.287Z,69.15
2022-12-23T14:05:05.560Z,75.99
2022-12-23T14:07:34.223Z,82.36
2022-12-23T14:10:19.929Z,87.72
2022-12-23T14:12:47.357Z,93.16
2022-12-23T14:15:26.469Z,95.97
2022-12-23T14:18:18.169Z,100.00
2022-12-23T14:20:55.722Z,100.00
2022-12-23T14:23:40.925Z,100.00
2022-12-23T14:26:33.954Z,100.00
2022-12-23T14:29:34.502Z,100.00
2022-12-23T14:32:01.574Z,100.00
2022-12-23T14:34:33.345Z,100.00
2022-12-23T14:37:24.941Z,100.00
2022-12-23T14:39:53.077Z,100.00
2022-12-23T14:42:42.981Z,100.00
2022-12-23T14:45:33.745Z,100.00
2022-12-23T14:48:00.461Z,100.00
2022-12-23T14:50:34.202Z,100.00
2022-12-23T14:53:20.444Z,100.00
2022-12-23T14:55:49.254Z,100.00
2022-12-23T14:58:20.174Z,100.00
2022-12-23T15:00:57.236Z,100.00
2022-12-23T15:03:24.231Z,100.00
2022-12-23T15:05:51.280Z,100.00
2022-12-23T15:08:30.774Z,100.00
2022-12-23T15:10:59.180Z,100.00
2022-12-23T15:13:28.983Z,100.00
2022-12-23T15:16:01.430Z,100.00
2022-12-23T15:18:29.093Z,100.00
2022-12-23T15:21:09.388Z,100.00
2022-12-23T15:23:36.446Z,100.00
2022-12-23T15:26:03.320Z,100.00
2022-12-23T15:28:39.563Z,100.00
2022-12-23T15:31:12.822Z,100.00
2022-12-23T15:36:35.776Z,100.00
2022-12-23T15:39:17.501Z,100.00
2022-12-23T15:41:45.946Z,100.00
2022-12-23T15:44:22.591Z,100.00
2022-12-23T15:46:50.741Z,100.00
2022-12-23T15:49:19.587Z,100.00
2022-12-23T15:52:09.738Z,100.00
2022-12-23T15:54:53.543Z,100.00
2022-12-23T15:57:23.420Z,100.00
2022-12-23T15:59:50.530Z,100.00
2022-12-23T16:02:59.142Z,100.00
2022-12-23T16:05:13.381Z,100.00
2022-12-23T16:07:41.829Z,100.00
2022-12-23T16:10:18.715Z,100.00
2022-12-23T16:12:45.415Z,100.00
2022-12-23T16:15:25.849Z,100.00
2022-12-23T16:17:52.581Z,100.00
2022-12-23T16:20:21.665Z,100.00
2022-12-23T16:22:51.290Z,100.00
2022-12-23T16:25:24.696Z,100.00
2022-12-23T16:28:07.550Z,100.00
2022-12-23T16:30:41.719Z,100.00
2022-12-23T16:33:35.913Z,100.00
2022-12-23T16:36:33.352Z,100.00
2022-12-23T16:39:11.846Z,100.00
2022-12-23T16:41:38.509Z,100.00
2022-12-23T16:44:05.363Z,100.00
2022-12-23T16:46:36.480Z,100.00
2022-12-23T16:49:06.014Z,100.00
2022-12-23T16:51:34.257Z,100.00
2022-12-23T16:54:01.988Z,100.00
2022-12-23T16:56:33.357Z,100.00
2022-12-23T16:59:00.085Z,100.00
2022-12-23T17:01:33.175Z,100.00
2022-12-23T17:03:59.799Z,100.00
2022-12-23T17:06:26.875Z,100.00
2022-12-23T17:08:53.850Z,100.00
2022-12-23T17:11:30.071Z,100.00
2022-12-23T17:14:03.885Z,100.00
2022-12-23T17:16:31.998Z,100.00
2022-12-23T17:18:58.802Z,100.00
2022-12-23T17:21:33.436Z,100.00
2022-12-23T17:24:07.239Z,100.00
2022-12-23T17:26:33.921Z,100.00
2022-12-23T17:29:03.417Z,100.00
2022-12-23T17:31:30.459Z,100.00
2022-12-23T17:33:57.333Z,100.00
2022-12-23T17:36:23.983Z,100.00
2022-12-23T17:38:50.670Z,100.00
2022-12-23T17:41:27.339Z,100.00
2022-12-23T17:43:54.040Z,100.00
2022-12-23T17:46:21.058Z,100.00
2022-12-23T17:48:47.906Z,100.00
2022-12-23T17:51:20.572Z,100.00
2022-12-23T17:53:53.198Z,100.00
2022-12-23T17:56:24.663Z,100.00
2022-12-23T17:58:51.940Z,100.00
2022-12-23T18:01:30.028Z,100.00
2022-12-23T18:03:58.486Z,100.00
2022-12-23T18:06:27.294Z,100.00
2022-12-23T18:08:54.154Z,100.00
2022-12-23T18:11:28.099Z,100.00
2022-12-23T18:13:54.935Z,100.00
2022-12-23T18:16:21.936Z,100.00
2022-12-23T18:18:48.638Z,100.00
2022-12-23T18:21:22.551Z,100.00
2022-12-23T18:23:50.512Z,100.00
2022-12-23T18:26:17.396Z,100.00
2022-12-23T18:28:44.054Z,100.00
2022-12-23T18:31:17.325Z,100.00
2022-12-23T18:33:44.151Z,100.00
2022-12-23T18:36:26.279Z,100.00
2022-12-23T18:38:53.747Z,100.00
2022-12-23T18:41:21.771Z,100.00
2022-12-23T18:43:48.460Z,100.00
2022-12-23T18:46:15.251Z,100.00
2022-12-23T18:48:42.178Z,100.00
2022-12-23T18:51:20.395Z,100.00
2022-12-23T18:53:49.856Z,100.00
2022-12-23T18:56:21.267Z,100.00
2022-12-23T18:58:48.632Z,100.00
2022-12-23T19:01:17.425Z,100.00
2022-12-23T19:03:44.903Z,100.00
2022-12-23T19:06:15.611Z,100.00
2022-12-23T19:08:43.511Z,100.00
2022-12-23T19:11:13.003Z,100.00
2022-12-23T19:13:39.680Z,100.00
2022-12-23T19:16:07.014Z,100.00
2022-12-23T19:18:33.939Z,100.00
2022-12-23T19:21:04.770Z,100.00
2022-12-23T19:23:31.870Z,100.00
2022-12-23T19:25:58.649Z,100.00
2022-12-23T19:28:25.244Z,100.00
2022-12-23T19:30:52.360Z,100.00
2022-12-23T19:33:18.982Z,100.00
2022-12-23T19:35:45.735Z,100.00
2022-12-23T19:38:12.820Z,100.00
2022-12-23T19:40:40.460Z,100.00
2022-12-23T19:43:07.698Z,100.00
2022-12-23T19:45:34.413Z,100.00
2022-12-23T19:48:01.284Z,100.00
2022-12-23T19:50:28.229Z,100.00
2022-12-23T19:52:56.615Z,100.00
2022-12-23T19:55:23.780Z,100.00
2022-12-23T19:57:52.029Z,100.00
2022-12-23T20:00:18.752Z,100.00
2022-12-23T20:02:45.396Z,100.00
2022-12-23T20:05:12.215Z,100.00
2022-12-23T20:07:38.848Z,100.00
2022-12-23T20:10:06.122Z,100.00
2022-12-23T20:12:33.515Z,100.00
2022-12-23T20:15:00.192Z,100.00
2022-12-23T20:17:27.259Z,100.00
2022-12-23T20:19:53.870Z,100.00
2022-12-23T20:22:20.458Z,100.00
2022-12-23T20:24:47.309Z,100.00
2022-12-23T20:27:15.882Z,100.00
2022-12-23T20:29:43.136Z,100.00
2022-12-23T20:32:10.074Z,100.00
2022-12-23T20:34:39.645Z,100.00
2022-12-23T20:37:07.875Z,100.00
2022-12-23T20:39:35.399Z,100.00
2022-12-23T20:42:02.407Z,100.00
2022-12-23T20:44:35.609Z,100.00
2022-12-23T20:47:03.961Z,100.00
2022-12-23T20:49:30.826Z,100.00
2022-12-23T20:51:57.611Z,100.00
2022-12-23T20:54:31.652Z,100.00
2022-12-23T20:56:59.313Z,100.00
2022-12-23T20:59:25.894Z,100.00
2022-12-23T21:01:52.731Z,100.00
2022-12-23T21:04:19.511Z,100.00
2022-12-23T21:06:46.205Z,100.00
2022-12-23T21:09:15.709Z,100.00
2022-12-23T21:11:45.215Z,100.00
2022-12-23T21:14:13.197Z,100.00
2022-12-23T21:16:40.433Z,100.00
2022-12-23T21:19:09.169Z,100.00
2022-12-23T21:21:35.934Z,100.00
2022-12-23T21:24:04.532Z,100.00
2022-12-23T21:26:33.035Z,100.00
2022-12-23T21:29:01.473Z,100.00
2022-12-23T21:31:30.972Z,100.00
2022-12-23T21:33:58.766Z,100.00
2022-12-23T21:36:28.279Z,100.00
2022-12-23T21:38:55.217Z,100.00
2022-12-23T21:41:24.641Z,100.00
2022-12-23T21:43:52.037Z,100.00
2022-12-23T21:46:21.292Z,100.00
2022-12-23T21:48:48.712Z,100.00
2022-12-23T21:51:20.899Z,100.00
2022-12-23T21:53:50.408Z,100.00
2022-12-23T21:56:20.168Z,100.00
2022-12-23T21:58:47.375Z,100.00
2022-12-23T22:01:19.346Z,100.00
2022-12-23T22:03:48.613Z,100.00
2022-12-23T22:06:20.227Z,100.00
2022-12-23T22:08:47.559Z,100.00
2022-12-23T22:11:16.786Z,100.00
2022-12-23T22:13:44.309Z,100.00
2022-12-23T22:16:17.261Z,100.00
2022-12-23T22:18:44.644Z,100.00
2022-12-23T22:21:14.065Z,100.00
2022-12-23T22:23:41.134Z,100.00
2022-12-23T22:26:08.801Z,100.00
2022-12-23T22:28:36.932Z,100.00
2022-12-23T22:31:16.861Z,100.00
2022-12-23T22:33:44.394Z,100.00
2022-12-23T22:36:13.313Z,100.00
2022-12-23T22:38:40.878Z,100.00
2022-12-23T22:41:08.957Z,100.00
2022-12-23T22:43:35.572Z,100.00
2022-12-23T22:46:03.192Z,100.00
2022-12-23T22:48:30.727Z,100.00
2022-12-23T22:51:15.645Z,100.00
2022-12-23T22:53:42.354Z,100.00
2022-12-23T22:56:12.015Z,100.00
2022-12-23T22:58:38.938Z,100.00
2022-12-23T23:01:06.555Z,100.00
2022-12-23T23:03:33.632Z,100.00
2022-12-23T23:06:07.037Z,100.00
2022-12-23T23:08:34.927Z,100.00
2022-12-23T23:11:04.725Z,100.00
2022-12-23T23:13:34.578Z,100.00
2022-12-23T23:16:02.151Z,100.00
2022-12-23T23:18:30.073Z,100.00
2022-12-23T23:20:56.784Z,100.00
2022-12-23T23:23:23.587Z,100.00
2022-12-23T23:25:50.444Z,100.00
2022-12-23T23:28:17.212Z,100.00
2022-12-23T23:30:44.438Z,100.00
2022-12-23T23:33:11.848Z,100.00
2022-12-23T23:35:38.546Z,100.00
2022-12-23T23:38:05.152Z,100.00
2022-12-23T23:40:31.804Z,100.00
2022-12-23T23:42:58.601Z,100.00
2022-12-23T23:45:25.391Z,100.00
2022-12-23T23:47:52.124Z,100.00
2022-12-23T23:50:19.073Z,100.00
2022-12-23T23:52:45.715Z,100.00
2022-12-23T23:55:12.378Z,100.00
2022-12-23T23:57:39.419Z,100.00
